Time;durP1;ratioP1;P1;durP2;ratioP2;P2;SDS_P1;SDS_P2;PMS_P1;PMS_P2;Temp;Humidity;BMP_temperature;BMP_pressure;BME280_temperature;BME280_humidity;BME280_pressure;Samples;Min_cycle;Max_cycle;Signal;HPM_P1;HPM_P2
2021/10/07 00:01:27;;;;;;;939.25;730.25;;;;;;;;;;5001863;28;20121;-80
2021/10/07 00:03:53;;;;;;;933.25;719.38;;;;;;;;;;5012012;28;20046;-80
2021/10/07 00:06:20;;;;;;;935.17;725.88;;;;;;;;;;5007716;28;20369;-80
2021/10/07 00:08:46;;;;;;;935.20;725.08;;;;;;;;;;5007764;28;20116;-80
2021/10/07 00:11:12;;;;;;;931.80;708.55;;;;;;;;;;5009262;28;20029;-80
2021/10/07 00:13:39;;;;;;;934.42;721.63;;;;;;;;;;5008741;28;20032;-80
2021/10/07 00:16:05;;;;;;;929.38;701.75;;;;;;;;;;5011918;28;20410;-80
2021/10/07 00:18:36;;;;;;;932.28;710.85;;;;;;;;;;5007762;28;20044;-80
2021/10/07 00:21:03;;;;;;;931.25;712.72;;;;;;;;;;5008945;28;20105;-80
2021/10/07 00:23:32;;;;;;;928.08;706.10;;;;;;;;;;5005433;28;20029;-79
2021/10/07 00:25:58;;;;;;;930.70;710.85;;;;;;;;;;5008752;28;20111;-80
2021/10/07 00:28:24;;;;;;;931.17;717.78;;;;;;;;;;5007516;28;20092;-80
2021/10/07 00:30:56;;;;;;;930.20;715.67;;;;;;;;;;5009157;28;20038;-79
2021/10/07 00:33:27;;;;;;;930.17;707.47;;;;;;;;;;5012828;28;20033;-80
2021/10/07 00:36:10;;;;;;;928.53;705.78;;;;;;;;;;5007493;28;20113;-79
2021/10/07 00:41:21;;;;;;;930.63;705.30;;;;;;;;;;5008939;28;20041;-79
2021/10/07 00:43:47;;;;;;;933.80;713.72;;;;;;;;;;5005769;28;20034;-80
2021/10/07 00:46:13;;;;;;;935.55;720.75;;;;;;;;;;5007620;28;20427;-79
2021/10/07 00:48:39;;;;;;;931.22;713.22;;;;;;;;;;5005786;28;20065;-79
2021/10/07 00:51:05;;;;;;;931.15;709.50;;;;;;;;;;5009086;28;20026;-79
2021/10/07 00:53:31;;;;;;;931.17;711.03;;;;;;;;;;5004778;28;20219;-80
2021/10/07 00:56:00;;;;;;;933.22;713.03;;;;;;;;;;5006138;28;20029;-79
2021/10/07 00:58:26;;;;;;;931.47;710.53;;;;;;;;;;5006850;28;20033;-80
2021/10/07 01:00:53;;;;;;;931.42;717.97;;;;;;;;;;5005742;28;20050;-80
2021/10/07 01:03:19;;;;;;;931.83;715.28;;;;;;;;;;5005952;28;20504;-80
2021/10/07 01:05:46;;;;;;;935.45;716.42;;;;;;;;;;5006868;28;20112;-79
2021/10/07 01:08:12;;;;;;;932.25;713.25;;;;;;;;;;5008711;28;20219;-80
2021/10/07 01:10:38;;;;;;;928.33;706.20;;;;;;;;;;5006422;28;20124;-80
2021/10/07 01:13:06;;;;;;;934.22;717.63;;;;;;;;;;5005470;28;20259;-79
2021/10/07 01:15:32;;;;;;;926.58;710.53;;;;;;;;;;5006783;28;20026;-79
2021/10/07 01:17:58;;;;;;;935.30;724.72;;;;;;;;;;5006757;28;20405;-79
2021/10/07 01:20:24;;;;;;;929.13;714.33;;;;;;;;;;5005902;28;20569;-79
2021/10/07 01:22:50;;;;;;;931.20;712.22;;;;;;;;;;5005993;28;20036;-79
2021/10/07 01:25:16;;;;;;;931.08;712.15;;;;;;;;;;5005936;28;20405;-79
2021/10/07 01:27:42;;;;;;;934.65;717.70;;;;;;;;;;5005291;28;20056;-80
2021/10/07 01:30:10;;;;;;;929.75;698.63;;;;;;;;;;5006257;28;20030;-80
2021/10/07 01:32:37;;;;;;;929.85;705.15;;;;;;;;;;5005223;28;20042;-79
2021/10/07 01:35:08;;;;;;;928.67;695.42;;;;;;;;;;5005798;28;20029;-79
2021/10/07 01:37:34;;;;;;;930.47;702.65;;;;;;;;;;5005664;28;20450;-80
2021/10/07 01:40:00;;;;;;;931.90;703.70;;;;;;;;;;5004357;28;20026;-79
2021/10/07 01:42:26;;;;;;;931.70;707.55;;;;;;;;;;5014725;28;20033;-80
2021/10/07 01:44:53;;;;;;;932.45;704.42;;;;;;;;;;5006932;28;20026;-79
2021/10/07 01:47:19;;;;;;;930.67;707.53;;;;;;;;;;5005869;28;20414;-79
2021/10/07 01:49:45;;;;;;;931.92;699.13;;;;;;;;;;5004735;28;20453;-79
2021/10/07 01:52:11;;;;;;;929.60;698.75;;;;;;;;;;5005707;28;20038;-79
2021/10/07 01:54:37;;;;;;;929.70;699.00;;;;;;;;;;5003680;28;20516;-80
2021/10/07 01:57:04;;;;;;;934.25;704.08;;;;;;;;;;5005112;28;20030;-79
2021/10/07 01:59:30;;;;;;;937.28;714.78;;;;;;;;;;5006473;28;20494;-79
2021/10/07 02:01:56;;;;;;;933.97;703.28;;;;;;;;;;5005489;28;20030;-79
2021/10/07 02:04:22;;;;;;;935.22;708.38;;;;;;;;;;5007132;28;20026;-80
2021/10/07 02:06:48;;;;;;;928.85;691.35;;;;;;;;;;5005733;28;20037;-79
2021/10/07 02:09:14;;;;;;;932.55;698.47;;;;;;;;;;5005227;28;20556;-80
2021/10/07 02:11:40;;;;;;;931.28;698.95;;;;;;;;;;5005672;28;20088;-79
2021/10/07 02:14:06;;;;;;;932.83;697.15;;;;;;;;;;5004674;28;20025;-80
2021/10/07 02:16:33;;;;;;;935.00;701.35;;;;;;;;;;5006163;28;20057;-79
2021/10/07 02:18:59;;;;;;;930.75;686.92;;;;;;;;;;5004674;28;20029;-79
2021/10/07 02:21:25;;;;;;;932.85;697.95;;;;;;;;;;5004986;28;20130;-79
2021/10/07 02:23:53;;;;;;;931.33;693.25;;;;;;;;;;5004452;28;20422;-79
2021/10/07 02:26:19;;;;;;;928.55;674.85;;;;;;;;;;5005332;28;20261;-80
2021/10/07 02:28:45;;;;;;;932.80;684.35;;;;;;;;;;5001211;28;20034;-79
2021/10/07 02:31:11;;;;;;;930.75;686.10;;;;;;;;;;5003354;28;20038;-79
2021/10/07 02:33:37;;;;;;;935.88;697.22;;;;;;;;;;5005075;28;20485;-79
2021/10/07 02:36:04;;;;;;;926.47;666.85;;;;;;;;;;5005604;28;20030;-79
2021/10/07 02:38:31;;;;;;;919.33;645.90;;;;;;;;;;5005204;28;20589;-79
2021/10/07 02:40:57;;;;;;;916.95;635.60;;;;;;;;;;5004763;28;20076;-79
2021/10/07 02:43:23;;;;;;;918.05;645.47;;;;;;;;;;5001956;28;20386;-79
2021/10/07 02:45:49;;;;;;;923.38;657.15;;;;;;;;;;5004841;28;20045;-79
2021/10/07 02:48:15;;;;;;;920.55;646.47;;;;;;;;;;5005598;28;20065;-79
2021/10/07 02:50:41;;;;;;;910.97;609.35;;;;;;;;;;5005281;28;20124;-80
2021/10/07 02:53:07;;;;;;;904.80;587.38;;;;;;;;;;4997038;28;20546;-79
2021/10/07 02:55:33;;;;;;;913.90;622.53;;;;;;;;;;5004804;28;20112;-79
2021/10/07 02:57:59;;;;;;;921.42;643.95;;;;;;;;;;5007115;28;20050;-79
2021/10/07 03:00:25;;;;;;;925.63;650.60;;;;;;;;;;5004595;28;20057;-79
2021/10/07 03:02:51;;;;;;;931.83;679.85;;;;;;;;;;5003844;28;20037;-79
2021/10/07 03:05:17;;;;;;;922.65;649.50;;;;;;;;;;5005128;28;20125;-79
2021/10/07 03:07:44;;;;;;;927.92;674.50;;;;;;;;;;5005585;28;20456;-80
2021/10/07 03:10:11;;;;;;;925.42;665.28;;;;;;;;;;5003605;28;20038;-80
2021/10/07 03:12:37;;;;;;;926.83;675.10;;;;;;;;;;5004608;28;20406;-79
2021/10/07 03:15:04;;;;;;;928.75;678.80;;;;;;;;;;5004856;28;20470;-80
2021/10/07 03:17:31;;;;;;;929.30;679.40;;;;;;;;;;5004166;28;20029;-80
2021/10/07 03:19:57;;;;;;;926.55;670.22;;;;;;;;;;5004841;28;20018;-80
2021/10/07 03:22:24;;;;;;;920.67;649.30;;;;;;;;;;5005174;28;20030;-80
2021/10/07 03:24:50;;;;;;;927.70;671.38;;;;;;;;;;5009779;28;20030;-80
2021/10/07 03:27:16;;;;;;;925.85;670.05;;;;;;;;;;5008422;28;20045;-80
2021/10/07 03:29:42;;;;;;;927.63;674.65;;;;;;;;;;5007198;28;20064;-80
2021/10/07 03:32:08;;;;;;;924.13;664.38;;;;;;;;;;5009557;28;20044;-80
2021/10/07 03:34:34;;;;;;;921.33;657.78;;;;;;;;;;5007954;28;20108;-80
2021/10/07 03:37:00;;;;;;;923.65;663.20;;;;;;;;;;5009376;28;20022;-80
2021/10/07 03:39:26;;;;;;;921.42;659.55;;;;;;;;;;5008178;28;20037;-80
2021/10/07 03:41:52;;;;;;;925.45;665.85;;;;;;;;;;5016098;28;20112;-80
2021/10/07 03:44:18;;;;;;;922.38;660.05;;;;;;;;;;5007964;28;20030;-80
2021/10/07 03:46:44;;;;;;;925.85;662.10;;;;;;;;;;5007794;28;20394;-80
2021/10/07 03:49:10;;;;;;;918.53;636.28;;;;;;;;;;5007551;28;20398;-80
2021/10/07 03:51:36;;;;;;;928.05;666.70;;;;;;;;;;5007496;28;20038;-80
2021/10/07 03:54:02;;;;;;;911.58;609.40;;;;;;;;;;5007387;28;20037;-80
2021/10/07 03:56:28;;;;;;;915.67;620.45;;;;;;;;;;5009480;28;20493;-80
2021/10/07 03:58:54;;;;;;;909.20;597.75;;;;;;;;;;5009897;28;20447;-81
2021/10/07 04:01:21;;;;;;;911.20;607.53;;;;;;;;;;5007067;28;20140;-81
2021/10/07 04:03:47;;;;;;;919.17;633.35;;;;;;;;;;5007931;28;20385;-80
2021/10/07 04:06:13;;;;;;;918.08;634.63;;;;;;;;;;5032275;28;20026;-80
2021/10/07 04:08:39;;;;;;;920.38;638.75;;;;;;;;;;5003566;28;20034;-81
2021/10/07 04:11:05;;;;;;;919.25;628.30;;;;;;;;;;5014029;28;20069;-81
2021/10/07 04:13:31;;;;;;;912.83;615.40;;;;;;;;;;5005135;28;20037;-81
2021/10/07 04:15:57;;;;;;;910.38;600.97;;;;;;;;;;5010852;28;20028;-81
2021/10/07 04:18:23;;;;;;;914.28;602.03;;;;;;;;;;5020363;28;20033;-82
2021/10/07 04:20:50;;;;;;;902.53;569.25;;;;;;;;;;5008935;28;20030;-82
2021/10/07 04:23:17;;;;;;;915.25;611.78;;;;;;;;;;5006789;28;20040;-81
2021/10/07 04:25:43;;;;;;;915.50;608.63;;;;;;;;;;5007940;28;20029;-81
2021/10/07 04:28:09;;;;;;;912.47;591.25;;;;;;;;;;5005943;28;20102;-81
2021/10/07 04:30:39;;;;;;;906.15;575.03;;;;;;;;;;5039992;28;20323;-81
2021/10/07 04:33:06;;;;;;;918.38;622.97;;;;;;;;;;5011478;28;20030;-80
2021/10/07 04:35:32;;;;;;;914.25;601.70;;;;;;;;;;5006391;28;20072;-81
2021/10/07 04:37:59;;;;;;;919.40;620.45;;;;;;;;;;5008020;28;20025;-81
2021/10/07 04:40:26;;;;;;;909.88;586.15;;;;;;;;;;5007048;28;20100;-82
2021/10/07 04:42:52;;;;;;;912.13;595.17;;;;;;;;;;5008335;28;20088;-81
2021/10/07 04:45:19;;;;;;;909.00;584.17;;;;;;;;;;5012679;28;20688;-81
2021/10/07 04:47:45;;;;;;;913.40;600.72;;;;;;;;;;5012198;28;20081;-81
2021/10/07 04:50:11;;;;;;;915.75;610.55;;;;;;;;;;5006822;28;20061;-81
2021/10/07 04:52:37;;;;;;;908.97;586.35;;;;;;;;;;5005892;28;20022;-81
2021/10/07 04:55:03;;;;;;;916.45;611.80;;;;;;;;;;4998592;28;20025;-82
2021/10/07 04:57:29;;;;;;;905.58;569.83;;;;;;;;;;5002880;28;20032;-82
2021/10/07 04:59:55;;;;;;;901.90;567.53;;;;;;;;;;5004847;28;20049;-82
2021/10/07 05:02:22;;;;;;;920.05;627.58;;;;;;;;;;5005112;28;20036;-82
2021/10/07 05:04:48;;;;;;;918.97;636.10;;;;;;;;;;5004100;28;20053;-82
2021/10/07 05:07:14;;;;;;;911.35;608.72;;;;;;;;;;4997711;28;20025;-82
2021/10/07 05:09:40;;;;;;;909.92;604.83;;;;;;;;;;5008274;28;20117;-82
2021/10/07 05:12:06;;;;;;;916.35;623.15;;;;;;;;;;5005733;28;20408;-82
2021/10/07 05:14:33;;;;;;;906.75;592.55;;;;;;;;;;5007926;28;20041;-82
2021/10/07 05:16:59;;;;;;;895.47;552.33;;;;;;;;;;5006579;28;20040;-82
2021/10/07 05:19:25;;;;;;;876.22;485.42;;;;;;;;;;5006808;28;20030;-82
2021/10/07 05:21:51;;;;;;;871.35;474.50;;;;;;;;;;5005821;28;20325;-82
2021/10/07 05:24:17;;;;;;;885.42;501.48;;;;;;;;;;5004589;28;20113;-82
2021/10/07 05:26:43;;;;;;;877.05;486.50;;;;;;;;;;5006585;28;20065;-82
2021/10/07 05:29:09;;;;;;;871.13;465.30;;;;;;;;;;5005993;28;20072;-83
2021/10/07 05:31:35;;;;;;;874.10;472.15;;;;;;;;;;5004287;28;20241;-83
2021/10/07 05:34:02;;;;;;;874.25;471.17;;;;;;;;;;5003951;28;20033;-82
2021/10/07 05:36:28;;;;;;;870.83;462.80;;;;;;;;;;5001311;28;20026;-82
2021/10/07 05:38:55;;;;;;;870.63;459.55;;;;;;;;;;5013661;28;20053;-82
2021/10/07 05:41:21;;;;;;;874.95;471.63;;;;;;;;;;5002262;28;20040;-82
2021/10/07 05:43:47;;;;;;;867.58;451.35;;;;;;;;;;5011629;28;20021;-83
2021/10/07 05:46:13;;;;;;;864.83;449.58;;;;;;;;;;5005873;28;20041;-82
2021/10/07 05:48:39;;;;;;;869.13;460.95;;;;;;;;;;5005570;28;20026;-82
2021/10/07 05:51:05;;;;;;;872.55;463.38;;;;;;;;;;5005726;28;20060;-82
2021/10/07 05:53:32;;;;;;;864.95;445.83;;;;;;;;;;5003679;28;20042;-81
2021/10/07 05:55:58;;;;;;;870.88;455.58;;;;;;;;;;5009461;28;20072;-82
2021/10/07 05:58:24;;;;;;;875.78;473.35;;;;;;;;;;5005843;28;21520;-82
2021/10/07 06:00:50;;;;;;;872.30;462.65;;;;;;;;;;5010591;28;20441;-82
2021/10/07 06:03:16;;;;;;;879.17;490.85;;;;;;;;;;5008259;28;20542;-82
2021/10/07 06:05:44;;;;;;;876.53;477.77;;;;;;;;;;5006291;28;20065;-83
2021/10/07 06:08:11;;;;;;;883.28;508.50;;;;;;;;;;5007732;28;20272;-81
2021/10/07 06:10:37;;;;;;;878.15;492.85;;;;;;;;;;5004445;28;20038;-83
2021/10/07 06:13:03;;;;;;;881.08;494.08;;;;;;;;;;5008978;28;20561;-83
2021/10/07 06:15:29;;;;;;;881.00;500.60;;;;;;;;;;5006281;28;20548;-83
2021/10/07 06:17:55;;;;;;;884.42;501.55;;;;;;;;;;5005771;28;20113;-83
2021/10/07 06:22:54;;;;;;;882.45;506.58;;;;;;;;;;5007492;28;20029;-82
2021/10/07 06:25:21;;;;;;;887.00;519.45;;;;;;;;;;5004452;28;20030;-82
2021/10/07 06:27:50;;;;;;;880.35;498.00;;;;;;;;;;5004103;28;20034;-82
2021/10/07 06:30:16;;;;;;;880.83;500.75;;;;;;;;;;5004923;28;20476;-82
2021/10/07 06:32:43;;;;;;;885.65;519.47;;;;;;;;;;5006730;28;20033;-82
2021/10/07 06:35:09;;;;;;;875.08;486.70;;;;;;;;;;5005703;28;20440;-82
2021/10/07 06:37:36;;;;;;;894.78;549.22;;;;;;;;;;5005559;28;20072;-82
2021/10/07 06:40:02;;;;;;;895.63;560.78;;;;;;;;;;5005709;28;20129;-81
2021/10/07 06:42:28;;;;;;;904.90;601.03;;;;;;;;;;5004525;28;20026;-82
2021/10/07 06:44:54;;;;;;;909.97;625.13;;;;;;;;;;5005980;28;20033;-82
2021/10/07 06:47:20;;;;;;;903.58;608.30;;;;;;;;;;5004828;28;20112;-82
2021/10/07 06:49:46;;;;;;;912.13;635.33;;;;;;;;;;5006362;28;20511;-83
2021/10/07 06:52:12;;;;;;;902.35;605.33;;;;;;;;;;5006029;28;20026;-82
2021/10/07 06:54:38;;;;;;;916.58;658.33;;;;;;;;;;5004331;28;20116;-82
2021/10/07 06:57:04;;;;;;;924.15;682.25;;;;;;;;;;5015612;28;20119;-82
2021/10/07 06:59:30;;;;;;;915.63;655.20;;;;;;;;;;5004825;28;20028;-81
2021/10/07 07:01:56;;;;;;;920.95;679.42;;;;;;;;;;5008428;28;20017;-81
2021/10/07 07:04:22;;;;;;;926.58;697.40;;;;;;;;;;5009798;28;20030;-80
2021/10/07 07:06:50;;;;;;;935.47;727.72;;;;;;;;;;5008790;28;20429;-80
2021/10/07 07:09:16;;;;;;;935.35;732.85;;;;;;;;;;5010460;28;20049;-80
2021/10/07 07:11:42;;;;;;;943.38;758.53;;;;;;;;;;5009227;28;20034;-80
2021/10/07 07:14:08;;;;;;;932.17;725.25;;;;;;;;;;5007734;28;20025;-80
2021/10/07 07:16:35;;;;;;;930.65;733.40;;;;;;;;;;5008605;28;20033;-79
2021/10/07 07:19:01;;;;;;;939.63;763.08;;;;;;;;;;5004692;28;21985;-79
2021/10/07 07:21:32;;;;;;;950.50;787.78;;;;;;;;;;5012535;28;20376;-79
2021/10/07 07:24:00;;;;;;;945.65;784.72;;;;;;;;;;5011023;28;20036;-80
2021/10/07 07:26:26;;;;;;;949.88;797.83;;;;;;;;;;5008959;28;20041;-80
2021/10/07 07:28:53;;;;;;;958.88;820.75;;;;;;;;;;5004767;28;20041;-80
2021/10/07 07:31:19;;;;;;;964.13;836.42;;;;;;;;;;5008664;28;20034;-79
2021/10/07 07:33:46;;;;;;;966.03;836.75;;;;;;;;;;5013075;28;20018;-80
2021/10/07 07:36:13;;;;;;;957.40;830.72;;;;;;;;;;5008539;28;20394;-79
2021/10/07 07:38:39;;;;;;;948.25;811.58;;;;;;;;;;5009068;28;20329;-79
2021/10/07 07:41:05;;;;;;;961.78;840.53;;;;;;;;;;5008728;28;20112;-80
2021/10/07 07:43:33;;;;;;;958.50;834.10;;;;;;;;;;5004764;28;20034;-80
2021/10/07 07:46:01;;;;;;;967.70;854.60;;;;;;;;;;5005710;28;20041;-80
2021/10/07 07:48:27;;;;;;;973.45;865.65;;;;;;;;;;5006609;28;20057;-80
2021/10/07 07:50:54;;;;;;;973.22;865.63;;;;;;;;;;5008186;28;20018;-80
2021/10/07 07:53:20;;;;;;;981.70;873.47;;;;;;;;;;5003008;28;20485;-80
2021/10/07 07:55:46;;;;;;;972.80;864.35;;;;;;;;;;5008043;28;20470;-80
2021/10/07 07:58:12;;;;;;;981.00;873.05;;;;;;;;;;5007740;28;20087;-80
2021/10/07 08:00:39;;;;;;;975.53;867.85;;;;;;;;;;5007498;28;20038;-80
2021/10/07 08:03:05;;;;;;;978.83;871.05;;;;;;;;;;5010823;28;20681;-80
2021/10/07 08:05:31;;;;;;;971.25;863.72;;;;;;;;;;5013800;28;20056;-79
2021/10/07 08:07:58;;;;;;;973.00;865.30;;;;;;;;;;5012479;28;20470;-79
2021/10/07 08:10:24;;;;;;;958.33;845.28;;;;;;;;;;5013193;28;20489;-79
2021/10/07 08:12:50;;;;;;;968.28;858.92;;;;;;;;;;5014249;28;20057;-80
2021/10/07 08:15:16;;;;;;;955.20;831.95;;;;;;;;;;5007762;28;20037;-80
2021/10/07 08:17:43;;;;;;;968.15;859.35;;;;;;;;;;5008228;28;20041;-81
2021/10/07 08:20:11;;;;;;;957.90;845.20;;;;;;;;;;5007892;28;20635;-81
2021/10/07 08:22:37;;;;;;;966.80;858.30;;;;;;;;;;5005819;28;20021;-82
2021/10/07 08:25:04;;;;;;;996.97;888.67;;;;;;;;;;5005242;28;20034;-82
2021/10/07 08:27:30;;;;;;;987.38;880.28;;;;;;;;;;5005766;28;20033;-81
2021/10/07 08:29:56;;;;;;;1046.53;936.28;;;;;;;;;;5007922;28;20025;-82
2021/10/07 08:32:23;;;;;;;1064.88;954.00;;;;;;;;;;5005903;28;20037;-82
2021/10/07 08:34:49;;;;;;;1053.20;943.55;;;;;;;;;;5006396;28;20021;-81
2021/10/07 08:37:15;;;;;;;1087.25;976.10;;;;;;;;;;5007278;28;20305;-82
2021/10/07 08:39:41;;;;;;;1083.93;973.63;;;;;;;;;;5006564;28;20044;-81
2021/10/07 08:42:07;;;;;;;1113.85;998.42;;;;;;;;;;5006892;28;20033;-81
2021/10/07 08:44:33;;;;;;;1130.38;999.90;;;;;;;;;;5005962;28;20034;-82
2021/10/07 08:46:59;;;;;;;1136.88;999.90;;;;;;;;;;5006867;28;20021;-82
2021/10/07 08:49:28;;;;;;;1146.00;999.90;;;;;;;;;;5006886;28;20029;-82
2021/10/07 08:51:55;;;;;;;1154.00;999.90;;;;;;;;;;5005310;28;20056;-81
2021/10/07 08:54:21;;;;;;;1161.57;999.90;;;;;;;;;;5016577;28;20045;-81
2021/10/07 08:56:49;;;;;;;1181.90;999.90;;;;;;;;;;5004812;28;20456;-81
2021/10/07 08:59:16;;;;;;;1167.90;999.90;;;;;;;;;;5006005;28;20069;-81
2021/10/07 09:01:44;;;;;;;1166.68;999.90;;;;;;;;;;5004181;28;20293;-81
2021/10/07 09:04:20;;;;;;;1173.65;999.90;;;;;;;;;;5005901;28;20034;-81
2021/10/07 09:07:07;;;;;;;1166.63;999.90;;;;;;;;;;5006150;28;20041;-81
2021/10/07 09:09:34;;;;;;;1155.85;999.90;;;;;;;;;;4996217;28;20042;-81
2021/10/07 09:12:05;;;;;;;1162.50;999.90;;;;;;;;;;5004193;28;20026;-82
2021/10/07 09:14:33;;;;;;;1175.65;999.90;;;;;;;;;;5004532;28;20041;-82
2021/10/07 09:17:00;;;;;;;1191.20;999.90;;;;;;;;;;5005922;28;20577;-81
2021/10/07 09:19:27;;;;;;;1190.75;999.90;;;;;;;;;;5006410;28;20037;-82
2021/10/07 09:21:55;;;;;;;1181.25;999.90;;;;;;;;;;5007258;28;20033;-82
2021/10/07 09:24:40;;;;;;;1188.57;999.90;;;;;;;;;;5005100;28;20403;-82
2021/10/07 09:27:08;;;;;;;1179.70;999.90;;;;;;;;;;5005919;28;20505;-81
2021/10/07 09:29:37;;;;;;;1176.15;999.90;;;;;;;;;;5005242;28;21350;-81
2021/10/07 09:32:04;;;;;;;1170.07;999.90;;;;;;;;;;5005742;28;20088;-82
2021/10/07 09:34:48;;;;;;;1168.53;999.90;;;;;;;;;;5005784;28;20044;-83
2021/10/07 09:37:22;;;;;;;1156.55;999.90;;;;;;;;;;5003827;28;20394;-82
2021/10/07 09:39:49;;;;;;;1152.55;999.90;;;;;;;;;;5005935;28;20052;-82
2021/10/07 09:42:19;;;;;;;1153.88;999.90;;;;;;;;;;5007023;28;20026;-81
2021/10/07 09:44:45;;;;;;;;;;;;;;;;;;5005498;28;20367;-81
2021/10/07 09:47:11;;;;;;;1106.07;994.17;;;;;;;;;;5014126;28;19920;-80
2021/10/07 09:49:37;;;;;;;1130.45;999.90;;;;;;;;;;5005524;28;20029;-80
2021/10/07 09:52:03;;;;;;;1138.22;999.90;;;;;;;;;;5005731;28;20083;-80
2021/10/07 09:54:38;;;;;;;1137.47;999.90;;;;;;;;;;5004255;28;20033;-80
2021/10/07 09:57:10;;;;;;;1133.68;999.90;;;;;;;;;;5009915;28;20049;-79
2021/10/07 09:59:36;;;;;;;1119.15;999.33;;;;;;;;;;5009716;28;20087;-80
2021/10/07 10:02:02;;;;;;;1109.35;995.97;;;;;;;;;;5008170;28;20026;-80
2021/10/07 10:04:31;;;;;;;1131.65;999.90;;;;;;;;;;5006181;28;20057;-79
2021/10/07 10:06:57;;;;;;;1138.88;999.90;;;;;;;;;;5009074;28;20057;-79
2021/10/07 10:09:24;;;;;;;1132.95;999.90;;;;;;;;;;5011023;28;20026;-80
2021/10/07 10:11:50;;;;;;;1129.43;999.90;;;;;;;;;;5012086;28;20060;-80
2021/10/07 10:14:16;;;;;;;1138.35;999.90;;;;;;;;;;5009152;28;20050;-80
2021/10/07 10:16:42;;;;;;;1139.47;999.90;;;;;;;;;;5010005;28;20018;-80
2021/10/07 10:19:09;;;;;;;1120.65;999.90;;;;;;;;;;5010223;28;20034;-79
2021/10/07 10:21:37;;;;;;;1145.85;999.90;;;;;;;;;;5009986;28;20026;-80
2021/10/07 10:24:04;;;;;;;1138.15;999.90;;;;;;;;;;5009941;28;20022;-80
2021/10/07 10:26:30;;;;;;;1113.78;998.20;;;;;;;;;;5011679;28;20018;-80
2021/10/07 10:28:56;;;;;;;1131.78;999.90;;;;;;;;;;5010398;28;20060;-80
2021/10/07 10:31:56;;;;;;;1138.20;999.90;;;;;;;;;;5010326;28;20478;-80
2021/10/07 10:34:23;;;;;;;1108.32;995.30;;;;;;;;;;4993130;28;20035;-80
2021/10/07 10:36:50;;;;;;;1120.70;999.90;;;;;;;;;;4999262;28;20096;-78
2021/10/07 10:39:18;;;;;;;1137.38;999.90;;;;;;;;;;5015184;28;20386;-81
2021/10/07 10:41:51;;;;;;;1134.03;999.90;;;;;;;;;;5014065;28;20072;-81
2021/10/07 10:44:37;;;;;;;1123.32;999.90;;;;;;;;;;5012942;28;20034;-82
2021/10/07 10:47:06;;;;;;;1130.10;999.90;;;;;;;;;;5014913;28;20465;-80
2021/10/07 10:49:36;;;;;;;1136.82;999.90;;;;;;;;;;5013029;28;20033;-80
2021/10/07 10:52:13;;;;;;;1138.18;999.90;;;;;;;;;;5010826;28;20026;-80
2021/10/07 10:54:47;;;;;;;1143.20;999.90;;;;;;;;;;5007718;28;20143;-80
2021/10/07 10:57:28;;;;;;;1145.53;999.90;;;;;;;;;;5009385;28;20041;-80
2021/10/07 11:00:11;;;;;;;1137.93;999.90;;;;;;;;;;5011516;28;20107;-81
2021/10/07 11:02:46;;;;;;;1143.35;999.90;;;;;;;;;;5008152;28;20045;-79
2021/10/07 11:05:22;;;;;;;1155.30;999.90;;;;;;;;;;5010293;28;20319;-79
2021/10/07 11:08:08;;;;;;;1137.57;999.90;;;;;;;;;;5010501;28;20041;-83
2021/10/07 11:10:37;;;;;;;1144.53;999.90;;;;;;;;;;5006311;28;20056;-81
2021/10/07 11:13:03;;;;;;;1138.45;999.90;;;;;;;;;;5011353;28;20126;-81
2021/10/07 11:15:29;;;;;;;1147.03;999.90;;;;;;;;;;5015394;28;20022;-81
2021/10/07 11:17:56;;;;;;;1153.18;999.90;;;;;;;;;;5014891;28;20029;-81
2021/10/07 11:20:24;;;;;;;1157.60;999.90;;;;;;;;;;5011590;28;20026;-80
2021/10/07 11:22:57;;;;;;;1139.78;999.90;;;;;;;;;;5014675;28;20474;-81
2021/10/07 11:25:23;;;;;;;1155.60;999.90;;;;;;;;;;5012284;28;20108;-81
2021/10/07 11:27:49;;;;;;;1135.25;999.90;;;;;;;;;;5013577;28;20604;-81
2021/10/07 11:30:18;;;;;;;1137.45;999.90;;;;;;;;;;5009361;28;20040;-81
2021/10/07 11:32:44;;;;;;;1122.27;999.90;;;;;;;;;;5010396;28;20053;-81
2021/10/07 11:35:11;;;;;;;1119.00;999.90;;;;;;;;;;5007921;28;20308;-80
2021/10/07 11:37:43;;;;;;;1121.35;999.90;;;;;;;;;;5010233;28;20022;-81
2021/10/07 11:40:28;;;;;;;1128.35;999.90;;;;;;;;;;5022275;28;20022;-81
2021/10/07 11:42:58;;;;;;;1144.05;999.90;;;;;;;;;;5005170;28;20028;-80
2021/10/07 11:45:25;;;;;;;1147.57;999.90;;;;;;;;;;5035921;28;20125;-80
2021/10/07 11:47:52;;;;;;;1153.13;999.90;;;;;;;;;;5007538;28;20034;-80
2021/10/07 11:50:20;;;;;;;1140.93;999.90;;;;;;;;;;5003499;28;20030;-81
2021/10/07 11:52:46;;;;;;;1159.95;999.90;;;;;;;;;;5002903;28;20030;-81
2021/10/07 11:55:12;;;;;;;1156.45;999.90;;;;;;;;;;4999033;28;20022;-80
2021/10/07 11:57:55;;;;;;;1165.03;999.90;;;;;;;;;;4999861;28;20026;-80
2021/10/07 12:00:39;;;;;;;1159.18;999.90;;;;;;;;;;5000292;28;20053;-79
2021/10/07 12:03:28;;;;;;;1134.65;999.90;;;;;;;;;;4995657;28;20081;-80
2021/10/07 12:06:02;;;;;;;1121.88;999.90;;;;;;;;;;4991411;28;20092;-80
2021/10/07 12:08:29;;;;;;;1152.70;999.90;;;;;;;;;;5008114;28;20435;-80
2021/10/07 12:10:57;;;;;;;1132.13;999.90;;;;;;;;;;5011983;28;20025;-81
2021/10/07 12:13:26;;;;;;;1137.68;999.90;;;;;;;;;;5003288;28;20030;-81
2021/10/07 12:16:00;;;;;;;1150.72;999.90;;;;;;;;;;5010399;28;20492;-81
2021/10/07 12:18:27;;;;;;;1164.32;999.90;;;;;;;;;;5012591;28;20033;-79
2021/10/07 12:21:14;;;;;;;1163.60;999.90;;;;;;;;;;5011494;28;20060;-79
2021/10/07 12:23:48;;;;;;;1156.53;999.90;;;;;;;;;;5003844;28;20026;-80
2021/10/07 12:26:22;;;;;;;1149.43;999.90;;;;;;;;;;5022788;28;20030;-79
2021/10/07 12:28:50;;;;;;;1156.65;999.90;;;;;;;;;;5014748;28;20022;-79
2021/10/07 12:31:19;;;;;;;1174.63;999.90;;;;;;;;;;5007834;28;20064;-80
2021/10/07 12:33:53;;;;;;;1170.28;999.90;;;;;;;;;;5005898;28;20032;-79
2021/10/07 12:36:19;;;;;;;1173.45;999.90;;;;;;;;;;5004335;28;20045;-80
2021/10/07 12:38:48;;;;;;;1152.00;999.90;;;;;;;;;;5006459;28;20026;-83
2021/10/07 12:41:14;;;;;;;1157.57;999.90;;;;;;;;;;5007891;28;20091;-82
2021/10/07 12:43:56;;;;;;;1148.95;999.90;;;;;;;;;;5006683;28;20033;-82
2021/10/07 12:46:23;;;;;;;1131.93;999.90;;;;;;;;;;4995876;28;20092;-83
2021/10/07 12:48:54;;;;;;;1143.60;999.90;;;;;;;;;;5006241;28;20401;-80
2021/10/07 12:51:21;;;;;;;1136.90;999.90;;;;;;;;;;5003091;28;20088;-80
2021/10/07 12:53:47;;;;;;;1137.95;999.90;;;;;;;;;;5003970;28;20049;-80
2021/10/07 12:56:15;;;;;;;1139.07;999.90;;;;;;;;;;5007940;28;20103;-80
2021/10/07 12:58:45;;;;;;;1135.65;999.90;;;;;;;;;;5003699;28;20022;-76
2021/10/07 13:01:12;;;;;;;1118.55;999.80;;;;;;;;;;5007050;28;20052;-79
2021/10/07 13:03:38;;;;;;;1108.60;996.63;;;;;;;;;;5003624;28;20515;-76
2021/10/07 13:06:08;;;;;;;1104.95;993.95;;;;;;;;;;5003990;28;20443;-81
2021/10/07 13:08:34;;;;;;;1101.93;991.60;;;;;;;;;;5005024;28;20084;-81
2021/10/07 13:11:01;;;;;;;1069.55;961.40;;;;;;;;;;5002674;28;20133;-82
2021/10/07 13:13:27;;;;;;;1089.72;980.38;;;;;;;;;;5006241;28;20033;-78
2021/10/07 13:15:53;;;;;;;1106.90;995.00;;;;;;;;;;5005483;28;20160;-78
2021/10/07 13:18:19;;;;;;;1115.43;999.53;;;;;;;;;;5005985;28;20029;-82
2021/10/07 13:20:47;;;;;;;1100.55;990.47;;;;;;;;;;5005748;28;20083;-79
2021/10/07 13:23:13;;;;;;;1121.32;999.90;;;;;;;;;;5005883;28;20046;-80
2021/10/07 13:25:44;;;;;;;1121.13;999.90;;;;;;;;;;5003919;28;20052;-79
2021/10/07 13:28:10;;;;;;;1106.45;994.25;;;;;;;;;;5003844;28;20025;-81
2021/10/07 13:30:37;;;;;;;1114.35;998.67;;;;;;;;;;5004584;28;20033;-80
2021/10/07 13:33:05;;;;;;;1113.00;998.13;;;;;;;;;;5003435;28;20040;-80
2021/10/07 13:35:32;;;;;;;1100.82;990.22;;;;;;;;;;5022485;28;20088;-81
2021/10/07 13:37:59;;;;;;;1103.05;992.08;;;;;;;;;;5008441;28;20014;-81
2021/10/07 13:40:26;;;;;;;1101.97;991.13;;;;;;;;;;5029546;28;20083;-82
2021/10/07 13:42:52;;;;;;;1099.22;988.38;;;;;;;;;;5010513;28;20108;-81
2021/10/07 13:45:19;;;;;;;1106.22;994.28;;;;;;;;;;5009202;28;20466;-80
2021/10/07 13:47:48;;;;;;;1107.55;995.30;;;;;;;;;;5005526;28;20037;-81
2021/10/07 13:50:14;;;;;;;1113.20;998.70;;;;;;;;;;5007838;28;20363;-79
2021/10/07 13:52:41;;;;;;;1107.90;995.50;;;;;;;;;;4999309;28;20101;-81
2021/10/07 13:55:07;;;;;;;1107.75;995.92;;;;;;;;;;4994160;28;20018;-81
2021/10/07 13:57:33;;;;;;;1099.03;988.03;;;;;;;;;;5004244;28;20014;-77